Rechercher aéroport 
image banner adimage banner adimage banner ad
image banner ad

9CL8 - Dcor Platform Eva

Situé à Huntington Beach, United States

ICAO - 9CL8, IATA -

Données fournies par Airmate  

Information générale

Coordonnées: N33°39'42" W118°3'43"
Élévation : 79 feet MSL.
Variation magnétique : 14° East
Voir autres Aéroports à California

Données opérationnelles

Special qualification required
Heure actuelle UTC:
Heure actuelle locale:
Météo à : KSLI - Los Alamitos Aaf ( 14 km )
METAR: KSLI 191158Z AUTO 07003KT 10SM CLR 09/09 A2998 RMK AO2 SLP155 70002 T00940089 10127 20090 57003 $
TAF: TAF KSLI 190503Z 1905/2011 VRB06KT 9999 SKC QNH2996INS TX19/1923Z TN11/1915Z
Voir NOTAMs / SUP AIP / TFR affectant cet aéroport [VIEW]
Fréquences de communication: [VIEW]

Pistes:

Coordonnées de l'aéroport

Adresse: Huntington Beach United States

Vue satellite de 9CL8